Terminal Aerodrome Forecast
Issued by NWS Shreveport, LA

Home | Current Version | Previous Version | Text Only | Print | Product List | Glossary On
Versions: 1 2 3 4 5 6 7 8 9 10 11 12 13 14
285
FTUS44 KSHV 202320
TAFGGG
TAF
KGGG 202320Z 2100/2124 17006KT P6SM FEW050 SCT250
      TEMPO 2108/2110 BKN015
     FM211000 18007KT P6SM BKN010
      TEMPO 2110/2114 5SM BR BKN008
     FM211400 19007KT P6SM BKN015
     FM211600 18010KT P6SM BKN025
     FM211800 18010KT P6SM SCT040 SCT250=

USA.gov is the U.S. government's official web portal to all federal, state and local government web resources and services.